x

Point Arguello, Ca (ptgc1) Weather Station

2:00pm - Sat 25th Jun 2016 All times are PDT. -7 hours from GMT.

  • Wind
    28mph, 30mph gusts
  • Air Temp 56°f
  • Sea Pressure 1012.7mb
  • Point Arguello, Ca
  • Point Arguello, Ca

More Historic Weather Station data

Upgrade to MSW Pro to gain access to the past 30 days of data for over 8000 Wavebouys and Weather Stations around the globe.

Join Pro

Comparision Forecast

View Surf forecast
   
Sat 06/25 2:00pm 28 30 mph 1012.7mb 56f
1:00pm 22 24 mph 1013.1mb 57f
12:00pm 18 21 mph 1013.3mb 57f
11:00am 22 24 mph 1013mb 57f
10:00am 21 22 mph 1013mb 55f
9:00am 22 24 mph 1013.3mb 55f
8:00am 21 22 mph 1012.9mb 54f
7:00am 20 21 mph 1012.9mb 53f
6:00am 20 21 mph 1012.9mb 53f
5:00am 18 21 mph 1012.6mb 52f
4:00am 22 24 mph 1012.6mb 53f
3:00am 24 28 mph 1012.9mb 53f
2:00am 22 24 mph 1013.4mb 53f
1:00am 23 25 mph 1013.6mb 53f
12:00am 21 24 mph 1014.2mb 54f
Fri 06/24 11:00pm 22 25 mph 1014.4mb 54f
10:00pm 24 26 mph 1014.4mb 55f
9:00pm 23 25 mph 1014.2mb 55f
8:00pm 26 30 mph 1014.1mb 56f
7:00pm 25 30 mph 1014.2mb 56f
6:00pm 25 28 mph 1014.3mb 56f
5:00pm 26 28 mph 1015mb 56f
4:00pm 24 28 mph 1015.4mb 56f
3:00pm 24 26 mph 1016mb 56f
2:00pm 23 24 mph 1016.4mb 55f
1:00pm 25 29 mph 1016.6mb 54f
12:00pm 24 28 mph 1016.8mb 53f
11:00am 26 28 mph 1016.7mb 52f
10:00am 26 30 mph 1016.4mb 52f
9:00am 30 31 mph 1016.4mb 51f
8:00am 28 30 mph 1016.2mb 51f
7:00am 29 31 mph 1015.8mb 51f
6:00am 28 29 mph 1015.4mb 52f
5:00am 28 31 mph 1015.3mb 54f
4:00am 25 29 mph 1015.4mb 55f
3:00am 28 30 mph 1015.4mb 56f
2:00am 25 29 mph 1015.7mb 57f
1:00am 22 28 mph 1016mb 57f
12:00am 29 31 mph 1015.7mb 58f
Thu 06/23 11:00pm 24 29 mph 1015.8mb 58f
10:00pm 25 28 mph 1015.6mb 60f
9:00pm 25 31 mph 1015.2mb 59f
8:00pm 29 33 mph 1014.7mb 60f
7:00pm 25 29 mph 1014.7mb 60f
6:00pm 24 29 mph 1014.7mb 62f
5:00pm 26 30 mph 1014.9mb 60f
4:00pm 23 25 mph 1015.3mb 59f
3:00pm 23 25 mph 1015.6mb 58f
2:00pm 20 22 mph 1015.8mb 58f
1:00pm 16 18 mph 1016.3mb 57f
12:00pm 16 20 mph 1016.4mb 57f
11:00am 20 21 mph 1016.3mb 56f
10:00am 18 21 mph 1016.1mb 53f
9:00am 21 22 mph 1016.1mb 53f
8:00am 20 23 mph 1015.9mb 53f
7:00am 11 13 mph 1015.8mb 50f
6:00am 13 15 mph 1015.1mb 50f
5:00am 15 16 mph 1014.8mb 51f
4:00am 24 25 mph 1014.2mb 51f
3:00am 24 26 mph 1014.4mb 52f
2:00am 29 32 mph 1014.5mb 53f
1:00am 31 33 mph 1014.6mb 53f
12:00am 30 33 mph 1014.8mb 54f
Wed 06/22 11:00pm 33 36 mph 1014.8mb 52f
10:00pm 34 37 mph 1014.8mb 53f
9:00pm 33 34 mph 1014.4mb 53f
8:00pm 34 36 mph 1014.2mb 54f
7:00pm 32 34 mph 1014.1mb 54f
6:00pm 32 34 mph 1014.3mb 54f
5:00pm 30 32 mph 1014.6mb 54f
4:00pm 29 30 mph 1014.8mb 54f
3:00pm 24
mph
1015.4mb 54f
2:00pm 18 20 mph 1016.1mb 54f
1:00pm 17 18 mph 1016.2mb 53f
12:00pm 16 17 mph 1016.3mb 53f
11:00am 16 17 mph 1016.1mb 53f
10:00am 18 20 mph 1015.6mb 53f
9:00am 16 17 mph 1015.6mb 53f
8:00am 13 14 mph 1015.1mb 53f
7:00am 13
mph
1014.6mb 54f
6:00am 17 18 mph 1013.6mb 53f
5:00am 17 18 mph 1013.7mb 54f
4:00am 20 22 mph 1013.6mb 55f
3:00am 21 23 mph 1013.6mb 55f
2:00am 20 22 mph 1014.2mb 56f
1:00am 20 21 mph 1014.7mb 56f
12:00am 15 16 mph 1015.2mb 56f
Tue 06/21 11:00pm 14 16 mph 1015.5mb 56f